Time;durP1;ratioP1;P1;durP2;ratioP2;P2;SDS_P1;SDS_P2;PMS_P1;PMS_P2;Temp;Humidity;BMP_temperature;BMP_pressure;BME280_temperature;BME280_humidity;BME280_pressure;Samples;Min_cycle;Max_cycle;Signal;HPM_P1;HPM_P2
2022/12/12 00:00:30;;;;;;;;;;;-1.70;99.90;;;-2.92;100.00;96547.72;5030271;28;19999;-51
2022/12/12 00:02:56;;;;;;;;;;;-1.70;99.90;;;-2.99;100.00;96553.72;5040906;28;19990;-52
2022/12/12 00:05:22;;;;;;;;;;;-1.70;99.90;;;-3.00;100.00;96556.28;5034328;28;20058;-51
2022/12/12 00:07:48;;;;;;;;;;;-1.80;99.90;;;-3.03;100.00;96551.09;5039669;28;20826;-51
2022/12/12 00:10:13;;;;;;;;;;;-1.80;99.90;;;-3.19;100.00;96529.59;5034313;28;19946;-50
2022/12/12 00:12:39;;;;;;;;;;;-1.90;99.90;;;-3.05;100.00;96556.28;5039841;28;19982;-49
2022/12/12 00:15:06;;;;;;;;;;;-1.90;99.90;;;-3.08;100.00;96554.53;5035643;28;19993;-49
2022/12/12 00:17:31;;;;;;;;;;;-1.90;99.90;;;-3.10;100.00;96551.09;5033130;28;20309;-48
2022/12/12 00:19:57;;;;;;;;;;;-1.90;99.90;;;-3.08;100.00;96554.53;5026064;28;20380;-48
2022/12/12 00:22:23;;;;;;;;;;;-1.90;99.90;;;-3.06;100.00;96557.13;5034348;28;20108;-48
2022/12/12 00:24:48;;;;;;;;;;;-1.90;99.90;;;-3.04;100.00;96557.13;5038010;28;19966;-52
2022/12/12 00:27:14;;;;;;;;;;;-1.90;99.90;;;-3.08;100.00;96551.97;5037801;28;20010;-52
2022/12/12 00:29:40;;;;;;;;;;;-1.90;99.90;;;-3.08;100.00;96561.44;5039306;28;19962;-51
2022/12/12 00:32:05;;;;;;;;;;;-1.90;99.90;;;-3.14;100.00;96562.28;5036567;28;19952;-50
2022/12/12 00:34:31;;;;;;;;;;;-2.00;99.90;;;-3.15;100.00;96560.53;5033321;28;20344;-49
2022/12/12 00:36:57;;;;;;;;;;;-2.00;99.90;;;-3.15;100.00;96557.09;5037026;28;19952;-50
2022/12/12 00:39:22;;;;;;;;;;;-2.00;99.90;;;-3.16;100.00;96561.41;5033988;28;20024;-48
2022/12/12 00:41:48;;;;;;;;;;;-2.00;99.90;;;-3.17;100.00;96558.81;5039238;28;19931;-49
2022/12/12 00:44:15;;;;;;;;;;;-2.10;99.90;;;-3.22;100.00;96550.19;5033448;28;19917;-55
2022/12/12 00:46:41;;;;;;;;;;;-2.10;99.90;;;-3.19;100.00;96568.28;5035141;28;19971;-48
2022/12/12 00:49:06;;;;;;;;;;;-2.10;99.90;;;-3.19;100.00;96563.13;5035230;28;20384;-49
2022/12/12 00:51:32;;;;;;;;;;;-2.10;99.90;;;-3.28;100.00;96545.88;5031670;28;20430;-50
2022/12/12 00:53:59;;;;;;;;;;;-2.10;99.90;;;-3.14;100.00;96574.28;5039760;28;20352;-49
2022/12/12 00:56:26;;;;;;;;;;;-2.10;99.90;;;-3.12;100.00;96563.13;5037125;28;19913;-49
2022/12/12 00:58:52;;;;;;;;;;;-2.00;99.90;;;-3.10;100.00;96566.56;5037320;28;19923;-48
2022/12/12 01:01:21;;;;;;;;;;;-2.00;99.90;;;-3.07;100.00;96565.72;5032185;28;19913;-49
2022/12/12 01:03:46;;;;;;;;;;;-2.00;99.90;;;-3.03;100.00;96566.59;5031753;28;19955;-49
2022/12/12 01:06:12;;;;;;;;;;;-1.90;99.90;;;-3.06;100.00;96562.28;5032343;28;19921;-49
2022/12/12 01:08:38;;;;;;;;;;;-1.90;99.90;;;-3.04;100.00;96562.31;5041277;28;19967;-49
2022/12/12 01:11:05;;;;;;;;;;;-1.90;99.90;;;-3.04;100.00;96565.72;5051254;28;19970;-49
2022/12/12 01:13:30;;;;;;;;;;;-1.90;99.90;;;-3.03;100.00;96566.59;5028413;28;19920;-49
2022/12/12 01:15:56;;;;;;;;;;;-1.90;99.90;;;-3.05;100.00;96569.19;5030654;28;20641;-49
2022/12/12 01:18:22;;;;;;;;;;;-1.90;99.90;;;-3.05;100.00;96563.13;5034144;28;20360;-48
2022/12/12 01:20:47;;;;;;;;;;;-2.00;99.90;;;-3.06;100.00;96562.28;5033274;28;19913;-49
2022/12/12 01:23:13;;;;;;;;;;;-2.00;99.90;;;-3.11;100.00;96564.84;5036130;28;19947;-51
2022/12/12 01:25:39;;;;;;;;;;;-2.00;99.90;;;-3.07;100.00;96568.28;5034597;28;20003;-52
2022/12/12 01:28:04;;;;;;;;;;;-2.00;99.90;;;-3.10;100.00;96576.03;5039562;28;20000;-52
2022/12/12 01:30:30;;;;;;;;;;;-2.00;99.90;;;-3.15;100.00;96564.84;5038991;28;19918;-49
2022/12/12 01:32:56;;;;;;;;;;;-2.00;99.90;;;-3.19;100.00;96560.53;5033238;28;19923;-49
2022/12/12 01:35:22;;;;;;;;;;;-2.00;99.90;;;-3.13;100.00;96565.72;5035793;28;19916;-52
2022/12/12 01:37:48;;;;;;;;;;;-2.00;99.90;;;-3.14;100.00;96575.16;5038494;28;20003;-51
2022/12/12 01:40:20;;;;;;;;;;;-2.10;99.90;;;-3.15;100.00;96568.28;5032588;28;19990;-50
2022/12/12 01:42:46;;;;;;;;;;;-2.00;99.90;;;-3.13;100.00;96570.88;5034071;28;19942;-50
2022/12/12 01:45:49;;;;;;;;;;;-2.00;99.90;;;-3.13;100.00;96570.88;5028753;28;20319;-51
2022/12/12 01:48:15;;;;;;;;;;;-2.00;99.90;;;-3.21;100.00;96568.25;5029385;28;20391;-52
2022/12/12 01:50:42;;;;;;;;;;;-2.10;99.90;;;-3.24;100.00;96569.97;5034746;28;20121;-52
2022/12/12 01:53:09;;;;;;;;;;;-2.10;99.90;;;-3.35;100.00;96581.09;5036581;28;19999;-50
2022/12/12 01:55:34;;;;;;;;;;;-2.20;99.90;;;-3.54;100.00;96576.69;5038132;28;20451;-49
2022/12/12 01:58:00;;;;;;;;;;;-2.30;99.90;;;-3.59;100.00;96592.13;5049591;28;19912;-52
2022/12/12 02:00:26;;;;;;;;;;;-2.40;99.90;;;-3.62;100.00;96583.53;5050024;28;19924;-48
2022/12/12 02:02:52;;;;;;;;;;;-2.40;99.90;;;-3.68;100.00;96586.94;5034597;28;19924;-49
2022/12/12 02:05:24;;;;;;;;;;;-2.50;99.90;;;-3.74;100.00;96580.03;5028871;28;20085;-48
2022/12/12 02:07:50;;;;;;;;;;;-2.60;99.90;;;-3.84;100.00;96589.44;5052603;28;19920;-48
2022/12/12 02:10:16;;;;;;;;;;;-2.70;99.90;;;-3.94;100.00;96582.47;5034760;28;19967;-48
2022/12/12 02:12:41;;;;;;;;;;;-2.80;99.90;;;-4.15;100.00;96564.31;5036615;28;20012;-48
2022/12/12 02:15:07;;;;;;;;;;;-2.90;99.90;;;-4.12;100.00;96585.78;5034825;28;19923;-50
2022/12/12 02:17:42;;;;;;;;;;;-2.90;99.90;;;-4.21;100.00;96575.44;5023043;28;19917;-50
2022/12/12 02:20:37;;;;;;;;;;;-3.00;99.90;;;-4.32;100.00;96587.34;5041671;28;19932;-48
2022/12/12 02:23:24;;;;;;;;;;;-3.10;99.90;;;-4.39;100.00;96575.28;5033078;28;19920;-47
2022/12/12 02:26:08;;;;;;;;;;;-3.20;99.90;;;-4.47;100.00;96580.34;5027265;28;21342;-48
2022/12/12 02:28:59;;;;;;;;;;;-3.30;99.90;;;-4.62;100.00;96563.94;5035973;28;20239;-48
2022/12/12 02:31:43;;;;;;;;;;;-3.40;99.90;;;-4.61;100.00;96580.25;5034083;28;19920;-48
2022/12/12 02:34:20;;;;;;;;;;;-3.40;99.90;;;-4.70;100.00;96588.75;5030257;28;19912;-50
2022/12/12 02:37:05;;;;;;;;;;;-3.50;99.90;;;-4.70;100.00;96590.44;5036924;28;19920;-48
2022/12/12 02:39:46;;;;;;;;;;;-3.50;99.90;;;-4.78;100.00;96595.50;5042502;28;20359;-48
2022/12/12 02:42:43;;;;;;;;;;;-3.60;99.90;;;-4.84;100.00;96586.00;5033541;28;20426;-47
2022/12/12 02:45:21;;;;;;;;;;;;;;;-4.87;100.00;96591.13;5031009;28;19921;-47
2022/12/12 02:47:53;;;;;;;;;;;-3.70;99.90;;;-4.95;100.00;96581.59;5037700;28;19917;-47
2022/12/12 02:50:21;;;;;;;;;;;-3.70;99.90;;;-4.94;100.00;96585.91;5032391;28;19917;-51
2022/12/12 02:52:47;;;;;;;;;;;-3.70;99.90;;;-4.96;100.00;96585.88;5045623;28;20011;-47
2022/12/12 02:55:14;;;;;;;;;;;-3.70;99.90;;;-5.00;100.00;96589.28;5032587;28;19912;-47
2022/12/12 02:57:40;;;;;;;;;;;-3.80;99.90;;;-5.02;100.00;96591.84;5037887;28;20024;-47
2022/12/12 03:00:16;;;;;;;;;;;-3.80;99.90;;;-5.01;100.00;96588.44;5038448;28;19912;-49
2022/12/12 03:07:45;;;;;;;;;;;-3.80;99.90;;;-5.01;100.00;96590.13;5036905;28;20541;-47
2022/12/12 03:09:33;;;;;;;;;;;-3.90;99.90;;;-5.06;100.00;96589.19;5046044;28;20331;-47
2022/12/12 03:12:37;;;;;;;;;;;-3.90;99.90;;;-5.09;100.00;96586.63;5033381;28;19952;-48
2022/12/12 03:15:12;;;;;;;;;;;-3.90;99.90;;;-5.12;100.00;96589.13;5038882;28;20295;-47
2022/12/12 03:17:43;;;;;;;;;;;-4.00;99.90;;;-5.19;100.00;96586.50;5048752;28;19933;-48
2022/12/12 03:20:13;;;;;;;;;;;-4.00;99.90;;;-5.20;100.00;96581.34;5038588;28;19955;-48
2022/12/12 03:22:47;;;;;;;;;;;-4.00;99.90;;;-5.21;100.00;96583.03;5030400;28;19967;-50
2022/12/12 03:25:33;;;;;;;;;;;-4.00;99.90;;;-5.28;100.00;96582.94;5032208;28;19923;-48
2022/12/12 03:28:11;;;;;;;;;;;-4.10;99.90;;;-5.29;100.00;96592.38;5034355;28;19951;-51
2022/12/12 03:30:41;;;;;;;;;;;-4.10;99.90;;;-5.38;100.00;96594.84;5039566;28;20369;-50
2022/12/12 03:33:28;;;;;;;;;;;-4.10;99.90;;;-5.43;100.00;96591.34;5025746;28;19967;-49
2022/12/12 03:36:21;;;;;;;;;;;-4.20;99.90;;;-5.46;100.00;96592.16;5022784;28;19927;-47
2022/12/12 03:38:57;;;;;;;;;;;-4.20;99.90;;;-5.49;100.00;96596.38;5023283;28;19944;-50
2022/12/12 03:41:39;;;;;;;;;;;-4.30;99.90;;;-5.47;100.00;96589.56;5040105;28;19924;-48
2022/12/12 03:44:21;;;;;;;;;;;-4.20;99.90;;;-5.52;100.00;96586.94;5030682;28;19920;-49
2022/12/12 03:46:58;;;;;;;;;;;-4.30;99.90;;;-5.50;100.00;96594.69;5035624;28;19928;-48
2022/12/12 03:49:29;;;;;;;;;;;-4.30;99.90;;;-5.55;100.00;96579.19;5030680;28;19917;-48
2022/12/12 03:52:00;;;;;;;;;;;-4.30;99.90;;;-5.61;100.00;96574.84;5033799;28;19973;-49
2022/12/12 03:55:01;;;;;;;;;;;-4.30;99.90;;;-5.52;100.00;96588.66;5040436;28;20035;-48
2022/12/12 03:57:35;;;;;;;;;;;-4.30;99.90;;;-5.47;100.00;96599.84;5027057;28;19973;-53
2022/12/12 04:00:07;;;;;;;;;;;-4.20;99.90;;;-5.41;100.00;96597.38;5037099;28;19917;-50
2022/12/12 04:02:40;;;;;;;;;;;-4.20;99.90;;;-5.40;100.00;96601.66;5039894;28;20279;-51
2022/12/12 04:05:27;;;;;;;;;;;-4.20;99.90;;;-5.38;100.00;96603.41;5048705;28;19916;-49
2022/12/12 04:07:59;;;;;;;;;;;-4.20;99.90;;;-5.34;100.00;96600.88;5036818;28;19970;-49
2022/12/12 04:13:19;;;;;;;;;;;-4.10;99.90;;;-5.18;100.00;96613.06;5031323;28;20100;-47
2022/12/12 04:15:54;;;;;;;;;;;-4.00;99.90;;;-5.13;100.00;96614.00;5024778;28;20716;-49
2022/12/12 04:18:36;;;;;;;;;;;-3.90;99.90;;;-5.09;100.00;96599.47;5033837;28;20449;-50
2022/12/12 04:24:14;;;;;;;;;;;-3.90;99.90;;;-5.09;100.00;96607.19;5028948;28;19973;-47
2022/12/12 04:26:44;;;;;;;;;;;-3.80;99.90;;;-5.09;100.00;96608.03;5031956;28;19912;-47
2022/12/12 04:29:37;;;;;;;;;;;-3.90;99.90;;;-5.09;100.00;96614.91;5040051;28;19925;-52
2022/12/12 04:32:33;;;;;;;;;;;-3.80;99.90;;;-5.06;100.00;96617.47;5034873;28;19922;-48
2022/12/12 04:35:03;;;;;;;;;;;-3.80;99.90;;;-5.12;100.00;96612.28;5076089;23;19924;-46
2022/12/12 04:37:35;;;;;;;;;;;-3.80;99.90;;;-5.09;100.00;96613.19;5093466;28;19911;-48
2022/12/12 04:40:05;;;;;;;;;;;-3.80;99.90;;;-5.08;100.00;96608.88;5087866;28;19920;-50
2022/12/12 04:42:35;;;;;;;;;;;-3.80;99.90;;;-5.07;100.00;96611.47;5091497;28;19973;-49
2022/12/12 04:45:11;;;;;;;;;;;-3.80;99.90;;;-4.98;100.00;96618.44;5066003;28;20002;-46
2022/12/12 04:47:37;;;;;;;;;;;-3.80;99.90;;;-4.90;100.00;96618.50;5068282;28;19938;-50
2022/12/12 04:50:04;;;;;;;;;;;-3.70;99.90;;;-4.90;100.00;96621.97;5071795;28;19916;-50
2022/12/12 04:52:32;;;;;;;;;;;-3.60;99.90;;;-4.84;100.00;96629.75;5065987;28;20089;-48
2022/12/12 04:55:16;;;;;;;;;;;-3.60;99.90;;;-4.84;100.00;96634.03;5068971;28;19981;-47
2022/12/12 04:57:44;;;;;;;;;;;-3.50;99.90;;;-4.79;100.00;96632.38;5074406;28;19959;-48
2022/12/12 05:00:11;;;;;;;;;;;-3.50;99.90;;;-4.80;100.00;96617.78;5071361;28;20298;-50
2022/12/12 05:02:55;;;;;;;;;;;-3.50;99.90;;;-4.69;100.00;96625.59;5070947;28;20231;-47
2022/12/12 05:05:27;;;;;;;;;;;-3.50;99.90;;;-4.73;100.00;96623.88;5065702;28;19920;-48
2022/12/12 05:08:06;;;;;;;;;;;-3.40;99.90;;;-4.88;100.00;96593.66;5087387;27;19963;-48
2022/12/12 05:10:31;;;;;;;;;;;-3.40;99.90;;;-4.66;100.00;96630.78;5073440;28;20013;-49
2022/12/12 05:12:59;;;;;;;;;;;-3.40;99.90;;;-4.62;100.00;96624.81;5075265;28;19927;-48
2022/12/12 05:15:25;;;;;;;;;;;-3.40;99.90;;;-4.57;100.00;96623.16;5065766;28;19939;-48
2022/12/12 05:17:58;;;;;;;;;;;-3.30;99.90;;;-4.52;100.00;96644.66;5065654;28;19974;-48
2022/12/12 05:20:23;;;;;;;;;;;-3.30;99.90;;;-4.52;100.00;96634.38;5082001;28;19923;-47
2022/12/12 05:22:49;;;;;;;;;;;-3.30;99.90;;;-4.42;100.00;96640.44;5083557;27;19920;-48
2022/12/12 05:25:15;;;;;;;;;;;-3.20;99.90;;;-4.37;100.00;96637.94;5068054;28;19938;-46
2022/12/12 05:27:40;;;;;;;;;;;-3.20;99.90;;;-4.33;100.00;96634.53;5068634;28;19920;-48
2022/12/12 05:30:06;;;;;;;;;;;-3.10;99.90;;;-4.31;100.00;96636.25;5064388;28;20353;-48
2022/12/12 05:32:32;;;;;;;;;;;-3.10;99.90;;;-4.28;100.00;96636.28;5068962;28;20406;-46
2022/12/12 05:34:58;;;;;;;;;;;-3.10;99.90;;;-4.29;100.00;96632.00;5068211;28;20267;-49
2022/12/12 05:37:24;;;;;;;;;;;-3.00;99.90;;;-4.23;100.00;96650.06;5053698;28;20442;-49
2022/12/12 05:39:49;;;;;;;;;;;-3.00;99.90;;;-4.18;100.00;96638.94;5069985;28;19916;-50
2022/12/12 05:42:15;;;;;;;;;;;-3.00;99.90;;;-4.13;100.00;96642.44;5057646;28;20031;-50
2022/12/12 05:44:40;;;;;;;;;;;-3.00;99.90;;;-4.13;100.00;96638.13;5060895;28;20322;-46
2022/12/12 05:47:06;;;;;;;;;;;-2.90;99.90;;;-4.17;100.00;96635.53;5063577;28;19916;-47
2022/12/12 05:49:32;;;;;;;;;;;-2.90;99.90;;;-4.13;100.00;96640.72;5066742;28;19935;-47
2022/12/12 05:51:57;;;;;;;;;;;-2.90;99.90;;;-4.07;100.00;96643.34;5064299;28;20012;-49
2022/12/12 05:54:23;;;;;;;;;;;-2.90;99.90;;;-4.05;100.00;96646.78;5063443;28;20336;-46
2022/12/12 05:56:48;;;;;;;;;;;-2.90;99.90;;;-4.08;100.00;96646.75;5070567;28;19974;-47
2022/12/12 05:59:14;;;;;;;;;;;-2.90;99.90;;;-4.10;100.00;96640.75;5073292;28;19912;-50
2022/12/12 06:01:40;;;;;;;;;;;-2.80;99.90;;;-4.12;100.00;96650.16;5060477;28;19947;-47
2022/12/12 06:04:05;;;;;;;;;;;-2.90;99.90;;;-4.13;100.00;96651.00;5068991;28;20503;-47
2022/12/12 06:06:31;;;;;;;;;;;-2.90;99.90;;;-4.11;100.00;96656.16;5072616;28;20431;-49
2022/12/12 06:08:56;;;;;;;;;;;-2.90;99.90;;;-4.11;100.00;96651.03;5064967;28;19967;-48
2022/12/12 06:11:22;;;;;;;;;;;-2.90;99.90;;;-4.07;100.00;96658.81;5063355;28;20349;-47
2022/12/12 06:13:48;;;;;;;;;;;-2.80;99.90;;;-4.04;100.00;96664.00;5064795;28;19920;-48
2022/12/12 06:16:16;;;;;;;;;;;-2.80;99.90;;;-4.04;100.00;96660.53;5067649;28;20143;-50
2022/12/12 06:18:42;;;;;;;;;;;-2.80;99.90;;;-4.16;100.00;96635.56;5072856;28;20004;-47
2022/12/12 06:21:10;;;;;;;;;;;-2.80;99.90;;;-3.97;100.00;96670.03;5072792;28;19920;-49
2022/12/12 06:23:40;;;;;;;;;;;-2.80;99.90;;;-3.95;100.00;96662.31;5069141;28;20275;-47
2022/12/12 06:26:07;;;;;;;;;;;-2.80;99.90;;;-3.92;100.00;96675.22;5068302;28;19926;-50
2022/12/12 06:28:33;;;;;;;;;;;-2.70;99.90;;;-3.89;100.00;96670.13;5069312;28;19920;-50
2022/12/12 06:30:59;;;;;;;;;;;-2.70;99.90;;;-3.90;100.00;96669.22;5077978;28;19911;-50
2022/12/12 06:33:26;;;;;;;;;;;-2.70;99.90;;;-3.83;100.00;96671.00;5077496;28;19920;-50
2022/12/12 06:36:07;;;;;;;;;;;-2.70;99.90;;;-3.91;100.00;96664.06;5072882;28;20004;-45
2022/12/12 06:38:34;;;;;;;;;;;-2.60;99.90;;;-3.85;100.00;96671.84;5071109;28;19920;-49
2022/12/12 06:41:04;;;;;;;;;;;-2.60;99.90;;;-3.86;100.00;96670.13;5070350;28;20037;-48
2022/12/12 06:43:30;;;;;;;;;;;-2.60;99.90;;;-3.79;100.00;96676.19;5078090;28;19911;-50
2022/12/12 06:46:03;;;;;;;;;;;-2.60;99.90;;;-3.78;100.00;96667.63;5076118;28;19965;-48
2022/12/12 06:48:30;;;;;;;;;;;-2.60;99.90;;;-3.75;100.00;96672.78;5082166;28;19911;-47
2022/12/12 06:50:55;;;;;;;;;;;-2.60;99.90;;;-3.78;100.00;96676.19;5078958;28;19919;-48
2022/12/12 06:53:21;;;;;;;;;;;-2.50;99.90;;;-3.80;100.00;96672.75;5080763;28;19912;-50
2022/12/12 06:55:46;;;;;;;;;;;-2.60;99.90;;;-3.77;100.00;96680.47;5070874;28;20256;-47
2022/12/12 06:58:12;;;;;;;;;;;-2.60;99.90;;;-3.76;100.00;96686.53;5063083;28;19959;-48
2022/12/12 07:00:38;;;;;;;;;;;-2.60;99.90;;;-3.78;100.00;96683.94;5062847;28;19916;-46
2022/12/12 07:03:03;;;;;;;;;;;-2.60;99.90;;;-3.72;100.00;96694.28;5065259;28;19920;-50
2022/12/12 07:05:29;;;;;;;;;;;-2.50;99.90;;;-3.72;100.00;96693.41;5063873;28;19956;-48
2022/12/12 07:07:55;;;;;;;;;;;-2.50;99.90;;;-3.69;100.00;96696.88;5069124;28;19928;-48
2022/12/12 07:10:20;;;;;;;;;;;-2.50;99.90;;;-3.66;100.00;96696.03;5067639;28;19978;-47
2022/12/12 07:12:46;;;;;;;;;;;-2.50;99.90;;;-3.72;100.00;96696.00;5068839;28;20367;-47
2022/12/12 07:15:11;;;;;;;;;;;-2.50;99.90;;;-3.66;100.00;96704.66;5066606;28;19958;-46
2022/12/12 07:17:37;;;;;;;;;;;-2.50;99.90;;;-3.67;100.00;96702.06;5064426;28;20434;-47
2022/12/12 07:20:04;;;;;;;;;;;-2.50;99.90;;;-3.65;100.00;96701.19;5069456;28;19919;-46
2022/12/12 07:22:29;;;;;;;;;;;-2.50;99.90;;;-3.60;100.00;96701.25;5070824;28;19918;-47
2022/12/12 07:24:55;;;;;;;;;;;-2.50;99.90;;;-3.58;100.00;96699.53;5067776;28;20012;-49
2022/12/12 07:27:20;;;;;;;;;;;-2.40;99.90;;;-3.52;100.00;96696.13;5069786;28;19916;-47
2022/12/12 07:29:46;;;;;;;;;;;-2.40;99.90;;;-3.53;100.00;96699.59;5067209;28;20100;-46
2022/12/12 07:32:12;;;;;;;;;;;-2.30;99.90;;;-3.52;100.00;96706.44;5063452;28;19961;-51
2022/12/12 07:34:37;;;;;;;;;;;-2.40;99.90;;;-3.67;100.00;96684.00;5063854;28;20508;-48
2022/12/12 07:37:03;;;;;;;;;;;-2.30;99.90;;;-3.52;100.00;96715.03;5066098;28;19916;-49
2022/12/12 07:39:30;;;;;;;;;;;-2.30;99.90;;;-3.54;100.00;96711.59;5064531;28;20418;-50
2022/12/12 07:41:55;;;;;;;;;;;-2.30;99.90;;;-3.51;100.00;96719.34;5057776;28;20367;-47
2022/12/12 07:44:21;;;;;;;;;;;-2.30;99.90;;;-3.48;100.00;96729.69;5061488;28;19942;-50
2022/12/12 07:46:47;;;;;;;;;;;-2.30;99.90;;;-3.39;100.00;96726.31;5059408;28;19926;-50
2022/12/12 07:49:12;;;;;;;;;;;-2.20;99.90;;;-3.30;100.00;96728.97;5066033;28;19943;-51
2022/12/12 07:51:38;;;;;;;;;;;-2.10;99.90;;;-3.25;100.00;96723.81;5063203;28;20502;-50
2022/12/12 07:54:04;;;;;;;;;;;-2.10;99.90;;;-3.23;100.00;96721.25;5071893;28;19912;-50
2022/12/12 07:56:29;;;;;;;;;;;-2.10;99.90;;;-3.16;100.00;96728.16;5072356;28;19939;-50
2022/12/12 07:58:55;;;;;;;;;;;-2.00;99.90;;;-3.15;100.00;96722.19;5073332;28;19972;-49
2022/12/12 08:01:24;;;;;;;;;;;-2.00;99.90;;;-3.14;100.00;96723.88;5068273;28;20003;-49
2022/12/12 08:03:50;;;;;;;;;;;-2.00;99.90;;;-3.10;100.00;96730.81;5077779;28;19912;-48
2022/12/12 08:06:17;;;;;;;;;;;-1.90;99.90;;;-3.04;100.00;96725.66;5069389;28;19916;-48
2022/12/12 08:08:43;;;;;;;;;;;-1.90;99.90;;;-2.99;100.00;96729.13;5074748;28;19923;-50
2022/12/12 08:11:10;;;;;;;;;;;-1.80;99.90;;;-2.92;100.00;96723.16;5078890;28;19916;-50
2022/12/12 08:13:37;;;;;;;;;;;-1.80;99.90;;;-2.88;100.00;96730.06;5070117;28;19920;-49
2022/12/12 08:16:04;;;;;;;;;;;-1.70;99.90;;;-2.82;100.00;96725.78;5064233;28;19920;-49
2022/12/12 08:18:30;;;;;;;;;;;-1.70;99.90;;;-2.99;100.00;96705.91;5071481;28;19916;-51
2022/12/12 08:20:55;;;;;;;;;;;-1.70;99.90;;;-2.78;100.00;96743.88;5077070;28;20393;-47
2022/12/12 08:23:21;;;;;;;;;;;-1.60;99.90;;;-2.77;100.00;96742.16;5072691;28;19920;-48
2022/12/12 08:25:47;;;;;;;;;;;-1.60;99.90;;;-2.77;100.00;96743.00;5069634;28;19923;-48
2022/12/12 08:28:12;;;;;;;;;;;-1.60;99.90;;;-2.78;100.00;96750.72;5070816;28;19923;-49
2022/12/12 08:30:38;;;;;;;;;;;-1.60;99.90;;;-2.76;100.00;96746.47;5073991;28;20539;-47
2022/12/12 08:33:03;;;;;;;;;;;-1.60;99.90;;;-2.71;100.00;96755.97;5072481;28;19958;-50
2022/12/12 08:35:30;;;;;;;;;;;-1.60;99.90;;;-2.64;100.00;96753.38;5076668;28;20014;-48
2022/12/12 08:37:55;;;;;;;;;;;-1.50;99.90;;;-2.69;100.00;96751.66;5077013;28;19920;-49
2022/12/12 08:40:21;;;;;;;;;;;-1.50;99.90;;;-2.63;100.00;96757.72;5079026;28;19916;-46
2022/12/12 08:42:47;;;;;;;;;;;-1.50;99.90;;;-2.59;100.00;96754.28;5066542;28;19920;-48
2022/12/12 08:45:12;;;;;;;;;;;-1.40;99.90;;;-2.56;100.00;96765.47;5075203;28;19916;-50
2022/12/12 08:47:38;;;;;;;;;;;-1.40;99.90;;;-2.61;100.00;96756.00;5075115;28;19919;-46
2022/12/12 08:50:04;;;;;;;;;;;-1.40;99.90;;;-2.58;100.00;96767.19;5076908;28;19916;-48
2022/12/12 08:52:30;;;;;;;;;;;-1.40;99.90;;;-2.54;100.00;96763.75;5076380;28;19923;-47
2022/12/12 08:54:55;;;;;;;;;;;-1.40;99.90;;;-2.48;100.00;96764.66;5072259;28;19912;-51
2022/12/12 08:57:21;;;;;;;;;;;-1.40;99.90;;;-2.46;100.00;96766.38;5078450;28;20117;-50
2022/12/12 08:59:47;;;;;;;;;;;-1.30;99.90;;;-2.52;100.00;96759.47;5076254;28;19980;-47
2022/12/12 09:02:13;;;;;;;;;;;-1.30;99.90;;;-2.41;100.00;96766.41;5075170;28;20318;-47
2022/12/12 09:04:38;;;;;;;;;;;-1.30;99.90;;;-2.36;100.00;96768.13;5066637;28;19919;-50
2022/12/12 09:07:05;;;;;;;;;;;-1.30;99.90;;;-2.26;100.00;96768.16;5067461;28;19946;-50
2022/12/12 09:09:31;;;;;;;;;;;-1.20;99.90;;;-2.20;100.00;96771.66;5068485;28;19945;-48
2022/12/12 09:11:57;;;;;;;;;;;-1.10;99.90;;;-2.17;100.00;96774.25;5081641;28;19920;-49
2022/12/12 09:14:23;;;;;;;;;;;-1.00;99.90;;;-2.25;100.00;96750.09;5072100;28;19920;-46
2022/12/12 09:16:48;;;;;;;;;;;-1.00;99.90;;;-1.99;100.00;96772.53;5075247;28;20456;-49
2022/12/12 09:19:14;;;;;;;;;;;-0.90;99.90;;;-2.03;100.00;96751.00;5071795;28;19919;-47
2022/12/12 09:21:40;;;;;;;;;;;-0.80;99.90;;;-1.94;100.00;96757.91;5080280;28;20344;-50
2022/12/12 09:24:06;;;;;;;;;;;-0.70;99.90;;;-1.77;100.00;96771.75;5055199;28;20552;-47
2022/12/12 09:26:32;;;;;;;;;;;-0.60;99.90;;;-1.71;100.00;96788.13;5059865;28;19920;-47
2022/12/12 09:28:57;;;;;;;;;;;-0.60;99.90;;;-1.70;100.00;96785.53;5063006;28;20461;-45
2022/12/12 09:31:23;;;;;;;;;;;-0.50;99.90;;;-1.55;100.00;96792.44;5065913;28;19926;-48
2022/12/12 09:33:49;;;;;;;;;;;-0.50;99.90;;;-1.58;100.00;96762.28;5066152;28;19962;-49
2022/12/12 09:36:15;;;;;;;;;;;-0.40;99.90;;;-1.33;100.00;96787.28;5067786;28;19955;-49
2022/12/12 09:38:41;;;;;;;;;;;-0.30;99.90;;;-1.33;100.00;96769.19;5066991;28;19920;-48
2022/12/12 09:41:13;;;;;;;;;;;-0.20;99.90;;;-1.17;100.00;96789.88;5072644;28;19923;-49
2022/12/12 09:44:03;;;;;;;;;;;-0.10;99.90;;;-1.10;100.00;96788.13;5062530;28;19954;-48
2022/12/12 09:46:32;;;;;;;;;;;0.00;99.90;;;-1.04;100.00;96793.31;5067469;28;19919;-49
2022/12/12 09:49:05;;;;;;;;;;;0.00;99.90;;;-0.97;100.00;96792.44;5075630;28;19928;-49
2022/12/12 09:51:31;;;;;;;;;;;0.10;99.90;;;-0.90;100.00;96792.44;5087465;28;19920;-48
2022/12/12 09:53:57;;;;;;;;;;;0.20;99.90;;;-0.81;100.00;96780.34;5070367;28;19920;-46
2022/12/12 09:56:51;;;;;;;;;;;0.30;99.90;;;-0.80;100.00;96782.06;5073301;28;19962;-47
2022/12/12 09:59:29;;;;;;;;;;;0.30;99.90;;;-0.74;100.00;96773.41;5059741;28;19915;-47
2022/12/12 10:02:04;;;;;;;;;;;0.30;99.90;;;-0.81;100.00;96779.47;5073522;28;19943;-48
2022/12/12 10:04:37;;;;;;;;;;;0.30;99.90;;;-0.79;100.00;96772.56;5075035;28;19965;-48
2022/12/12 10:07:15;;;;;;;;;;;0.30;99.90;;;-0.79;100.00;96769.97;5075719;28;20018;-46
2022/12/12 10:09:49;;;;;;;;;;;0.30;99.90;;;-0.73;100.00;96771.69;5087956;27;20182;-45
2022/12/12 10:12:18;;;;;;;;;;;0.30;99.90;;;-0.70;100.00;96772.56;5072193;28;19941;-48
2022/12/12 10:14:49;;;;;;;;;;;0.30;99.90;;;-0.68;100.00;96776.00;5081108;28;19919;-45
2022/12/12 10:17:17;;;;;;;;;;;0.40;99.90;;;-0.71;100.00;96769.97;5070553;28;19911;-48
2022/12/12 10:19:50;;;;;;;;;;;0.40;99.90;;;-0.78;100.00;96775.16;5076276;28;20002;-46
2022/12/12 10:22:36;;;;;;;;;;;0.40;99.90;;;-0.72;100.00;96779.44;5078552;28;19911;-46
2022/12/12 10:25:20;;;;;;;;;;;0.40;99.90;;;-0.66;100.00;96774.25;5078075;28;19923;-45
2022/12/12 10:27:46;;;;;;;;;;;0.40;99.90;;;-0.59;100.00;96775.97;5081738;28;19950;-47
2022/12/12 10:30:17;;;;;;;;;;;0.50;99.90;;;-0.60;100.00;96773.38;5081086;28;20375;-48
2022/12/12 10:32:52;;;;;;;;;;;0.50;99.90;;;-0.63;100.00;96778.56;5074215;28;19989;-45
2022/12/12 10:35:50;;;;;;;;;;;0.50;99.90;;;-0.65;100.00;96772.53;5079375;22;19924;-55
2022/12/12 10:38:48;;;;;;;;;;;0.50;99.90;;;-0.66;100.00;96769.09;5052506;28;19917;-55
2022/12/12 10:41:27;;;;;;;;;;;0.50;99.90;;;-0.67;100.00;96771.66;5059551;28;19962;-55
2022/12/12 10:44:17;;;;;;;;;;;0.50;99.90;;;-0.69;100.00;96771.66;5053322;28;19916;-55
2022/12/12 10:47:10;;;;;;;;;;;0.50;99.90;;;-0.75;100.00;96768.22;5029054;28;20010;-55
2022/12/12 10:49:36;;;;;;;;;;;0.40;99.90;;;-0.83;100.00;96769.09;5052184;28;19924;-55
2022/12/12 10:52:04;;;;;;;;;;;0.40;99.90;;;-0.94;100.00;96765.69;5058386;28;19923;-54
2022/12/12 10:54:32;;;;;;;;;;;0.30;99.90;;;-1.07;100.00;96762.25;5063968;28;19913;-55
2022/12/12 10:57:08;;;;;;;;;;;0.10;99.90;;;-1.17;100.00;96761.44;5038411;28;20030;-53
2022/12/12 10:59:42;;;;;;;;;;;0.10;99.90;;;-1.31;100.00;96763.16;5058105;28;20434;-55
2022/12/12 11:02:22;;;;;;;;;;;-0.10;99.90;;;-1.44;100.00;96761.41;5056990;28;19913;-55
2022/12/12 11:04:48;;;;;;;;;;;-0.20;99.90;;;-1.54;100.00;96756.25;5055779;28;19912;-55
2022/12/12 11:07:19;;;;;;;;;;;-0.40;99.90;;;-1.63;100.00;96761.41;5054665;28;20445;-55
2022/12/12 11:09:45;;;;;;;;;;;-0.50;99.90;;;-1.69;100.00;96755.38;5044515;28;19924;-55
2022/12/12 11:12:13;;;;;;;;;;;-0.50;99.90;;;-1.76;100.00;96757.97;5037625;28;19955;-54
2022/12/12 11:14:45;;;;;;;;;;;-0.60;99.90;;;-1.78;100.00;96758.81;5055961;28;19935;-55
2022/12/12 11:17:25;;;;;;;;;;;-0.60;99.90;;;-1.88;100.00;96745.03;5053196;28;20009;-55
2022/12/12 11:19:53;;;;;;;;;;;-0.70;99.90;;;-1.84;100.00;96744.16;5055159;28;20003;-54
2022/12/12 11:22:19;;;;;;;;;;;-0.70;99.90;;;-1.82;100.00;96742.44;5057890;28;19913;-53
2022/12/12 11:24:46;;;;;;;;;;;-0.70;99.90;;;-1.87;100.00;96736.38;5054493;28;19919;-53
2022/12/12 11:27:25;;;;;;;;;;;-0.70;99.90;;;-1.81;100.00;96738.13;5043723;28;19916;-55
2022/12/12 11:29:52;;;;;;;;;;;-0.70;99.90;;;-1.81;100.00;96739.00;5035869;28;19970;-54
2022/12/12 11:32:25;;;;;;;;;;;-0.70;99.90;;;-1.84;100.00;96735.56;5039041;28;19916;-55